Time;durP1;ratioP1;P1;durP2;ratioP2;P2;SDS_P1;SDS_P2;PMS_P1;PMS_P2;Temp;Humidity;BMP_temperature;BMP_pressure;BME280_temperature;BME280_humidity;BME280_pressure;Samples;Min_cycle;Max_cycle;Signal;HPM_P1;HPM_P2
2023/03/26 00:00:25;;;;;;;;;;;;;;;;;;10379587;28;1959;-76
2023/03/26 00:05:21;;;;;;;;;;;;;;;;;;10378947;28;925;-76
2023/03/26 00:10:17;;;;;;;;;;;;;;;;;;10379585;28;872;-77
2023/03/26 00:15:13;;;;;;;;;;;;;;;;;;10378855;28;838;-77
2023/03/26 00:20:10;;;;;;;;;;;;;;;;;;10376664;28;1957;-76
2023/03/26 00:25:06;;;;;;;;;;;;;;;;;;10372228;28;799;-76
2023/03/26 00:30:02;;;;;;;;;;;;;;;;;;10371817;28;933;-76
2023/03/26 00:35:00;;;;;;;;;;;;;;;;;;10371615;28;976;-77
2023/03/26 00:40:01;;;;;;;;;;;;;;;;;;10371539;28;1945;-76
2023/03/26 00:44:57;;;;;;;;;;;;;;;;;;10371886;28;780;-76
2023/03/26 00:49:53;;;;;;;;;;;;;;;;;;10371732;28;791;-76
2023/03/26 00:54:48;;;;;;;;;;;;;;;;;;10370947;28;969;-77
2023/03/26 00:59:44;;;;;;;;;;;;;;;;;;10371114;28;1910;-76
2023/03/26 01:04:41;;;;;;;;;;;;;;;;;;10370653;28;989;-77
2023/03/26 01:09:37;;;;;;;;;;;;;;;;;;10370290;28;913;-77
2023/03/26 01:14:33;;;;;;;;;;;;;;;;;;10369722;28;973;-77
2023/03/26 01:19:28;;;;;;;;;;;;;;;;;;10369918;28;1878;-77
2023/03/26 01:24:24;;;;;;;;;;;;;;;;;;10369813;28;783;-77
2023/03/26 01:29:20;;;;;;;;;;;;;;;;;;10369569;28;789;-77
2023/03/26 01:34:16;;;;;;;;;;;;;;;;;;10368885;28;845;-77
2023/03/26 01:39:17;;;;;;;;;;;;;;;;;;10369875;28;1991;-77
2023/03/26 01:44:13;;;;;;;;;;;;;;;;;;10369848;28;861;-76
2023/03/26 01:49:11;;;;;;;;;;;;;;;;;;10369392;28;902;-76
2023/03/26 01:54:08;;;;;;;;;;;;;;;;;;10369179;28;877;-77
2023/03/26 01:59:04;;;;;;;;;;;;;;;;;;10368313;28;1910;-77
2023/03/26 02:04:00;;;;;;;;;;;;;;;;;;10368207;28;915;-77
2023/03/26 02:08:56;;;;;;;;;;;;;;;;;;10368050;28;773;-77
2023/03/26 02:13:52;;;;;;;;;;;;;;;;;;10367885;28;808;-77
2023/03/26 02:18:50;;;;;;;;;;;;;;;;;;10367628;28;1943;-77
2023/03/26 02:23:46;;;;;;;;;;;;;;;;;;10368075;28;810;-77
2023/03/26 02:28:41;;;;;;;;;;;;;;;;;;10367362;28;854;-76
2023/03/26 02:33:38;;;;;;;;;;;;;;;;;;10367186;28;860;-77
2023/03/26 02:38:34;;;;;;;;;;;;;;;;;;10367601;28;1889;-77
2023/03/26 02:43:30;;;;;;;;;;;;;;;;;;10366037;28;1347;-76
2023/03/26 02:48:26;;;;;;;;;;;;;;;;;;10366759;28;941;-77
2023/03/26 02:53:22;;;;;;;;;;;;;;;;;;10366647;28;803;-77
2023/03/26 02:58:18;;;;;;;;;;;;;;;;;;10366437;28;976;-77
2023/03/26 03:03:15;;;;;;;;;;;;;;;;;;10367285;28;1964;-76
2023/03/26 03:08:12;;;;;;;;;;;;;;;;;;10366282;28;838;-77
2023/03/26 03:13:08;;;;;;;;;;;;;;;;;;10366865;28;794;-77
2023/03/26 03:18:03;;;;;;;;;;;;;;;;;;10366119;28;859;-77
2023/03/26 03:23:00;;;;;;;;;;;;;;;;;;10365956;28;1949;-77
2023/03/26 03:27:56;;;;;;;;;;;;;;;;;;10366683;28;950;-76
2023/03/26 03:32:51;;;;;;;;;;;;;;;;;;10365805;28;777;-77
2023/03/26 03:37:47;;;;;;;;;;;;;;;;;;10365682;28;877;-77
2023/03/26 03:42:43;;;;;;;;;;;;;;;;;;10366567;28;1885;-76
2023/03/26 03:47:39;;;;;;;;;;;;;;;;;;10365525;28;1298;-76
2023/03/26 03:52:35;;;;;;;;;;;;;;;;;;10364794;28;893;-77
2023/03/26 03:57:32;;;;;;;;;;;;;;;;;;10372369;28;1010;-76
2023/03/26 04:02:33;;;;;;;;;;;;;;;;;;10373015;28;1906;-77
2023/03/26 04:07:32;;;;;;;;;;;;;;;;;;10372831;28;876;-76
2023/03/26 04:12:28;;;;;;;;;;;;;;;;;;10372459;28;924;-77
2023/03/26 04:17:23;;;;;;;;;;;;;;;;;;10373703;28;859;-77
2023/03/26 04:22:20;;;;;;;;;;;;;;;;;;10372801;28;1895;-77
2023/03/26 04:27:16;;;;;;;;;;;;;;;;;;10371976;28;928;-77
2023/03/26 04:32:13;;;;;;;;;;;;;;;;;;10371887;28;818;-77
2023/03/26 04:37:09;;;;;;;;;;;;;;;;;;10371740;28;1744;-77
2023/03/26 04:42:04;;;;;;;;;;;;;;;;;;10371618;28;1895;-77
2023/03/26 04:47:00;;;;;;;;;;;;;;;;;;10371926;28;941;-77
2023/03/26 04:51:56;;;;;;;;;;;;;;;;;;10371196;28;794;-76
2023/03/26 04:56:52;;;;;;;;;;;;;;;;;;10371622;28;864;-76
2023/03/26 05:01:48;;;;;;;;;;;;;;;;;;10370737;28;1977;-76
2023/03/26 05:06:44;;;;;;;;;;;;;;;;;;10370326;28;883;-76
2023/03/26 05:11:40;;;;;;;;;;;;;;;;;;10370391;28;910;-76
2023/03/26 05:16:36;;;;;;;;;;;;;;;;;;10370723;28;758;-76
2023/03/26 05:21:31;;;;;;;;;;;;;;;;;;10369889;28;1890;-76
2023/03/26 05:26:28;;;;;;;;;;;;;;;;;;10370383;28;839;-76
2023/03/26 05:31:25;;;;;;;;;;;;;;;;;;10369548;28;1068;-76
2023/03/26 05:36:21;;;;;;;;;;;;;;;;;;10369336;28;895;-76
2023/03/26 05:41:17;;;;;;;;;;;;;;;;;;10369157;28;1886;-76
2023/03/26 05:46:13;;;;;;;;;;;;;;;;;;10368338;28;976;-76
2023/03/26 05:51:11;;;;;;;;;;;;;;;;;;10369470;28;956;-76
2023/03/26 05:56:07;;;;;;;;;;;;;;;;;;10368576;28;931;-76
2023/03/26 06:01:04;;;;;;;;;;;;;;;;;;10368358;28;1972;-76
2023/03/26 06:06:00;;;;;;;;;;;;;;;;;;10368786;28;949;-76
2023/03/26 06:10:56;;;;;;;;;;;;;;;;;;10368044;28;1033;-76
2023/03/26 06:15:52;;;;;;;;;;;;;;;;;;10367258;28;933;-76
2023/03/26 06:20:47;;;;;;;;;;;;;;;;;;10368137;28;1953;-77
2023/03/26 06:25:44;;;;;;;;;;;;;;;;;;10367454;28;934;-72
2023/03/26 06:30:40;;;;;;;;;;;;;;;;;;10368150;28;865;-73
2023/03/26 06:35:36;;;;;;;;;;;;;;;;;;10367922;28;913;-71
2023/03/26 06:40:32;;;;;;;;;;;;;;;;;;10367574;28;1944;-71
2023/03/26 06:45:27;;;;;;;;;;;;;;;;;;10367536;28;872;-71
2023/03/26 06:50:23;;;;;;;;;;;;;;;;;;10366802;28;878;-71
2023/03/26 06:55:19;;;;;;;;;;;;;;;;;;10366676;28;780;-70
2023/03/26 07:00:15;;;;;;;;;;;;;;;;;;10366377;28;1969;-71
2023/03/26 07:05:11;;;;;;;;;;;;;;;;;;10366962;28;819;-71
2023/03/26 07:10:07;;;;;;;;;;;;;;;;;;10366301;28;807;-70
2023/03/26 07:15:03;;;;;;;;;;;;;;;;;;10365606;28;1041;-72
2023/03/26 07:20:00;;;;;;;;;;;;;;;;;;10366628;28;1951;-72
2023/03/26 07:24:56;;;;;;;;;;;;;;;;;;10365902;28;912;-71
2023/03/26 07:29:51;;;;;;;;;;;;;;;;;;10367496;28;827;-71
2023/03/26 07:34:47;;;;;;;;;;;;;;;;;;10374587;28;854;-72
2023/03/26 07:39:43;;;;;;;;;;;;;;;;;;10373464;28;1885;-72
2023/03/26 07:44:39;;;;;;;;;;;;;;;;;;10373825;28;732;-72
2023/03/26 07:49:36;;;;;;;;;;;;;;;;;;10373559;28;904;-72
2023/03/26 07:54:32;;;;;;;;;;;;;;;;;;10372894;28;936;-72
2023/03/26 07:59:28;;;;;;;;;;;;;;;;;;10373555;28;1905;-72
2023/03/26 08:04:24;;;;;;;;;;;;;;;;;;10373047;28;791;-71
2023/03/26 08:09:20;;;;;;;;;;;;;;;;;;10372744;28;865;-71
2023/03/26 08:14:15;;;;;;;;;;;;;;;;;;10372592;28;880;-71
2023/03/26 08:19:11;;;;;;;;;;;;;;;;;;10372946;28;1941;-71
2023/03/26 08:24:08;;;;;;;;;;;;;;;;;;10372288;28;981;-70
2023/03/26 08:29:04;;;;;;;;;;;;;;;;;;10372009;28;885;-70
2023/03/26 08:34:00;;;;;;;;;;;;;;;;;;10372573;28;789;-71
2023/03/26 08:38:58;;;;;;;;;;;;;;;;;;10371276;28;1940;-72
2023/03/26 08:43:55;;;;;;;;;;;;;;;;;;10368316;28;1096;-72
2023/03/26 08:48:51;;;;;;;;;;;;;;;;;;10370693;28;865;-72
2023/03/26 08:53:46;;;;;;;;;;;;;;;;;;10370777;28;1019;-73
2023/03/26 08:58:42;;;;;;;;;;;;;;;;;;10370192;28;1910;-72
2023/03/26 09:03:40;;;;;;;;;;;;;;;;;;10370046;28;961;-69
2023/03/26 09:08:35;;;;;;;;;;;;;;;;;;10369941;28;835;-69
2023/03/26 09:13:31;;;;;;;;;;;;;;;;;;10370085;28;789;-71
2023/03/26 09:18:27;;;;;;;;;;;;;;;;;;10370536;28;926;-72
2023/03/26 09:23:23;;;;;;;;;;;;;;;;;;10369621;28;1881;-72
2023/03/26 09:28:20;;;;;;;;;;;;;;;;;;10368952;28;882;-71
2023/03/26 09:33:16;;;;;;;;;;;;;;;;;;10369223;28;866;-71
2023/03/26 09:38:12;;;;;;;;;;;;;;;;;;10368667;28;981;-71
2023/03/26 09:43:08;;;;;;;;;;;;;;;;;;10368886;28;1890;-72
2023/03/26 09:48:04;;;;;;;;;;;;;;;;;;10368685;28;1010;-72
2023/03/26 09:53:00;;;;;;;;;;;;;;;;;;10368054;28;866;-72
2023/03/26 09:57:57;;;;;;;;;;;;;;;;;;10368222;28;901;-72
2023/03/26 10:02:53;;;;;;;;;;;;;;;;;;10368565;28;1917;-72
2023/03/26 10:07:49;;;;;;;;;;;;;;;;;;10367929;28;811;-72
2023/03/26 10:12:45;;;;;;;;;;;;;;;;;;10368443;28;939;-72
2023/03/26 10:17:41;;;;;;;;;;;;;;;;;;10367593;28;884;-71
2023/03/26 10:22:37;;;;;;;;;;;;;;;;;;10367893;28;1894;-72
2023/03/26 10:27:33;;;;;;;;;;;;;;;;;;10367907;28;813;-72
2023/03/26 10:32:29;;;;;;;;;;;;;;;;;;10367845;28;831;-72
2023/03/26 10:37:25;;;;;;;;;;;;;;;;;;10366169;28;913;-72
2023/03/26 10:42:21;;;;;;;;;;;;;;;;;;10366990;28;1973;-72
2023/03/26 10:47:17;;;;;;;;;;;;;;;;;;10366618;28;785;-70
2023/03/26 10:52:15;;;;;;;;;;;;;;;;;;10366499;28;1127;-72
2023/03/26 10:57:11;;;;;;;;;;;;;;;;;;10366267;28;976;-71
2023/03/26 11:02:06;;;;;;;;;;;;;;;;;;10366700;28;1914;-71
2023/03/26 11:07:03;;;;;;;;;;;;;;;;;;10365233;28;944;-70
2023/03/26 11:11:59;;;;;;;;;;;;;;;;;;10365943;28;888;-71
2023/03/26 11:16:55;;;;;;;;;;;;;;;;;;10365950;28;780;-77
2023/03/26 11:21:51;;;;;;;;;;;;;;;;;;10365749;28;1886;-74
2023/03/26 11:26:48;;;;;;;;;;;;;;;;;;10365132;28;874;-76
2023/03/26 11:31:44;;;;;;;;;;;;;;;;;;10366261;28;787;-76
2023/03/26 11:36:40;;;;;;;;;;;;;;;;;;10366043;28;797;-75
2023/03/26 11:41:36;;;;;;;;;;;;;;;;;;10365835;28;1948;-75
2023/03/26 11:46:31;;;;;;;;;;;;;;;;;;10365980;28;790;-74
2023/03/26 11:51:27;;;;;;;;;;;;;;;;;;10365278;28;922;-75
2023/03/26 11:56:23;;;;;;;;;;;;;;;;;;10365739;28;904;-77
2023/03/26 12:01:21;;;;;;;;;;;;;;;;;;10364473;28;1902;-77
2023/03/26 12:06:17;;;;;;;;;;;;;;;;;;10364917;28;1171;-77
2023/03/26 12:11:13;;;;;;;;;;;;;;;;;;10365513;28;897;-77
2023/03/26 12:16:09;;;;;;;;;;;;;;;;;;10367933;28;988;-77
2023/03/26 12:21:05;;;;;;;;;;;;;;;;;;10373040;28;1890;-76
2023/03/26 12:26:01;;;;;;;;;;;;;;;;;;10372687;28;838;-76
2023/03/26 12:30:57;;;;;;;;;;;;;;;;;;10371853;28;901;-77
2023/03/26 12:35:53;;;;;;;;;;;;;;;;;;10371860;28;921;-76
2023/03/26 12:40:49;;;;;;;;;;;;;;;;;;10371135;28;1917;-77
2023/03/26 12:45:45;;;;;;;;;;;;;;;;;;10371263;28;865;-77
2023/03/26 12:50:41;;;;;;;;;;;;;;;;;;10372358;28;792;-76
2023/03/26 12:55:37;;;;;;;;;;;;;;;;;;10371712;28;844;-76
2023/03/26 13:00:33;;;;;;;;;;;;;;;;;;10370885;28;1885;-75
2023/03/26 13:05:29;;;;;;;;;;;;;;;;;;10371309;28;921;-78
2023/03/26 13:10:25;;;;;;;;;;;;;;;;;;10370847;28;867;-78
2023/03/26 13:15:21;;;;;;;;;;;;;;;;;;10370779;28;932;-70
2023/03/26 13:20:17;;;;;;;;;;;;;;;;;;10370658;28;1949;-72
2023/03/26 13:25:13;;;;;;;;;;;;;;;;;;10369968;28;798;-73
2023/03/26 13:30:09;;;;;;;;;;;;;;;;;;10369107;28;929;-73
2023/03/26 13:35:05;;;;;;;;;;;;;;;;;;10369580;28;776;-71
2023/03/26 13:40:03;;;;;;;;;;;;;;;;;;10369046;28;1918;-73
2023/03/26 13:45:00;;;;;;;;;;;;;;;;;;10369442;28;853;-72
2023/03/26 13:49:56;;;;;;;;;;;;;;;;;;10368921;28;979;-71
2023/03/26 13:54:51;;;;;;;;;;;;;;;;;;10368808;28;946;-72
2023/03/26 13:59:47;;;;;;;;;;;;;;;;;;10367879;28;1957;-72
2023/03/26 14:04:43;;;;;;;;;;;;;;;;;;10368400;28;938;-72
2023/03/26 14:09:39;;;;;;;;;;;;;;;;;;10366021;28;1137;-72
2023/03/26 14:14:35;;;;;;;;;;;;;;;;;;10368160;28;880;-72
2023/03/26 14:19:32;;;;;;;;;;;;;;;;;;10367883;28;1882;-71
2023/03/26 14:24:28;;;;;;;;;;;;;;;;;;10367690;28;810;-72
2023/03/26 14:29:24;;;;;;;;;;;;;;;;;;10367076;28;875;-72
2023/03/26 14:34:22;;;;;;;;;;;;;;;;;;10367350;28;783;-72
2023/03/26 14:39:18;;;;;;;;;;;;;;;;;;10366970;28;1985;-72
2023/03/26 14:44:14;;;;;;;;;;;;;;;;;;10366647;28;1028;-72
2023/03/26 14:49:10;;;;;;;;;;;;;;;;;;10366940;28;877;-71
2023/03/26 14:54:06;;;;;;;;;;;;;;;;;;10366666;28;964;-71
2023/03/26 14:59:01;;;;;;;;;;;;;;;;;;10367528;28;1953;-71
2023/03/26 15:03:57;;;;;;;;;;;;;;;;;;10366476;28;862;-72
2023/03/26 15:08:53;;;;;;;;;;;;;;;;;;10366384;28;874;-72
2023/03/26 15:13:50;;;;;;;;;;;;;;;;;;10366174;28;831;-72
2023/03/26 15:18:45;;;;;;;;;;;;;;;;;;10366687;28;799;-72
2023/03/26 15:23:41;;;;;;;;;;;;;;;;;;10366708;28;929;-71
2023/03/26 15:28:37;;;;;;;;;;;;;;;;;;10366624;28;841;-72
2023/03/26 15:33:33;;;;;;;;;;;;;;;;;;10365236;28;1020;-72
2023/03/26 15:38:29;;;;;;;;;;;;;;;;;;10366473;28;768;-72
2023/03/26 15:43:25;;;;;;;;;;;;;;;;;;10365854;28;1997;-71
2023/03/26 15:48:21;;;;;;;;;;;;;;;;;;10365612;28;766;-71
2023/03/26 15:53:17;;;;;;;;;;;;;;;;;;10372183;28;890;-72
2023/03/26 15:58:13;;;;;;;;;;;;;;;;;;10373373;28;888;-72
2023/03/26 16:03:09;;;;;;;;;;;;;;;;;;10373355;28;1878;-72
2023/03/26 16:08:05;;;;;;;;;;;;;;;;;;10373817;28;929;-72
2023/03/26 16:13:01;;;;;;;;;;;;;;;;;;10372895;28;953;-72
2023/03/26 16:17:57;;;;;;;;;;;;;;;;;;10372049;28;1001;-72
2023/03/26 16:22:53;;;;;;;;;;;;;;;;;;10373428;28;1890;-68
2023/03/26 16:27:49;;;;;;;;;;;;;;;;;;10372168;28;960;-72
2023/03/26 16:32:46;;;;;;;;;;;;;;;;;;10372134;28;927;-72
2023/03/26 16:37:44;;;;;;;;;;;;;;;;;;10372973;28;908;-72
2023/03/26 16:42:40;;;;;;;;;;;;;;;;;;10370966;28;1898;-72
2023/03/26 16:47:37;;;;;;;;;;;;;;;;;;10371518;28;874;-72
2023/03/26 16:52:33;;;;;;;;;;;;;;;;;;10371941;28;779;-72
2023/03/26 16:57:29;;;;;;;;;;;;;;;;;;10371875;28;795;-73
2023/03/26 17:02:25;;;;;;;;;;;;;;;;;;10369654;28;1886;-72
2023/03/26 17:07:21;;;;;;;;;;;;;;;;;;10370761;28;776;-72
2023/03/26 17:12:20;;;;;;;;;;;;;;;;;;10370421;28;831;-72
2023/03/26 17:17:15;;;;;;;;;;;;;;;;;;10370918;28;905;-72
2023/03/26 17:22:11;;;;;;;;;;;;;;;;;;10370731;28;1945;-72
2023/03/26 17:27:07;;;;;;;;;;;;;;;;;;10369957;28;942;-72
2023/03/26 17:32:07;;;;;;;;;;;;;;;;;;10369688;28;1155;-76
2023/03/26 17:37:03;;;;;;;;;;;;;;;;;;10370284;28;1161;-79
2023/03/26 17:41:59;;;;;;;;;;;;;;;;;;10368806;28;1969;-78
2023/03/26 17:46:54;;;;;;;;;;;;;;;;;;10369794;28;893;-78
2023/03/26 17:51:50;;;;;;;;;;;;;;;;;;10369060;28;778;-78
2023/03/26 17:56:46;;;;;;;;;;;;;;;;;;10368792;28;893;-78
2023/03/26 18:01:42;;;;;;;;;;;;;;;;;;10368557;28;1886;-79
2023/03/26 18:06:38;;;;;;;;;;;;;;;;;;10368873;28;985;-79
2023/03/26 18:11:34;;;;;;;;;;;;;;;;;;10368718;28;830;-78
2023/03/26 18:16:30;;;;;;;;;;;;;;;;;;10367626;28;1051;-79
2023/03/26 18:21:26;;;;;;;;;;;;;;;;;;10367859;28;1947;-79
2023/03/26 18:26:22;;;;;;;;;;;;;;;;;;10368207;28;948;-79
2023/03/26 18:31:18;;;;;;;;;;;;;;;;;;10367438;28;865;-78
2023/03/26 18:36:14;;;;;;;;;;;;;;;;;;10367217;28;861;-79
2023/03/26 18:41:10;;;;;;;;;;;;;;;;;;10366728;28;1899;-78
2023/03/26 18:46:06;;;;;;;;;;;;;;;;;;10367594;28;834;-79
2023/03/26 18:51:03;;;;;;;;;;;;;;;;;;10366867;28;823;-78
2023/03/26 18:55:59;;;;;;;;;;;;;;;;;;10366704;28;1717;-79
2023/03/26 19:00:55;;;;;;;;;;;;;;;;;;10366762;28;1878;-78
2023/03/26 19:05:51;;;;;;;;;;;;;;;;;;10367139;28;826;-78
2023/03/26 19:10:49;;;;;;;;;;;;;;;;;;10366464;28;913;-78
2023/03/26 19:15:45;;;;;;;;;;;;;;;;;;10366653;28;933;-78
2023/03/26 19:20:41;;;;;;;;;;;;;;;;;;10366680;28;1883;-78
2023/03/26 19:25:37;;;;;;;;;;;;;;;;;;10367833;28;1020;-78
2023/03/26 19:30:33;;;;;;;;;;;;;;;;;;10374450;28;889;-79
2023/03/26 19:35:29;;;;;;;;;;;;;;;;;;10374919;28;820;-79
2023/03/26 19:40:28;;;;;;;;;;;;;;;;;;10374210;28;1968;-79
2023/03/26 19:45:25;;;;;;;;;;;;;;;;;;10373885;28;866;-79
2023/03/26 19:50:24;;;;;;;;;;;;;;;;;;10373824;28;791;-69
2023/03/26 19:55:20;;;;;;;;;;;;;;;;;;10374240;28;846;-81
2023/03/26 20:00:16;;;;;;;;;;;;;;;;;;10373983;28;1882;-79
2023/03/26 20:05:12;;;;;;;;;;;;;;;;;;10374107;28;921;-80
2023/03/26 20:10:08;;;;;;;;;;;;;;;;;;10373069;28;858;-79
2023/03/26 20:15:04;;;;;;;;;;;;;;;;;;10372684;28;869;-79
2023/03/26 20:20:00;;;;;;;;;;;;;;;;;;10372540;28;1947;-79
2023/03/26 20:24:56;;;;;;;;;;;;;;;;;;10372470;28;910;-79
2023/03/26 20:29:53;;;;;;;;;;;;;;;;;;10372486;28;863;-79
2023/03/26 20:34:49;;;;;;;;;;;;;;;;;;10372726;28;844;-79
2023/03/26 20:39:45;;;;;;;;;;;;;;;;;;10371700;28;1914;-79
2023/03/26 20:44:41;;;;;;;;;;;;;;;;;;10371906;28;909;-78
2023/03/26 20:49:37;;;;;;;;;;;;;;;;;;10372031;28;888;-79
2023/03/26 20:54:34;;;;;;;;;;;;;;;;;;10370581;28;938;-79
2023/03/26 20:59:30;;;;;;;;;;;;;;;;;;10370983;28;1957;-79
2023/03/26 21:04:26;;;;;;;;;;;;;;;;;;10371559;28;942;-79
2023/03/26 21:09:22;;;;;;;;;;;;;;;;;;10370665;28;1410;-78
2023/03/26 21:14:19;;;;;;;;;;;;;;;;;;10370041;28;902;-79
2023/03/26 21:19:15;;;;;;;;;;;;;;;;;;10370203;28;1885;-78
2023/03/26 21:24:11;;;;;;;;;;;;;;;;;;10370762;28;811;-79
2023/03/26 21:29:07;;;;;;;;;;;;;;;;;;10370776;28;858;-79
2023/03/26 21:34:04;;;;;;;;;;;;;;;;;;10370382;28;798;-79
2023/03/26 21:39:00;;;;;;;;;;;;;;;;;;10369316;28;1977;-79
2023/03/26 21:43:56;;;;;;;;;;;;;;;;;;10369360;28;755;-79
2023/03/26 21:48:51;;;;;;;;;;;;;;;;;;10369840;28;885;-79
2023/03/26 21:53:47;;;;;;;;;;;;;;;;;;10369565;28;819;-79
2023/03/26 21:58:43;;;;;;;;;;;;;;;;;;10368787;28;886;-79
2023/03/26 22:03:39;;;;;;;;;;;;;;;;;;10369290;28;1943;-79
2023/03/26 22:08:35;;;;;;;;;;;;;;;;;;10368360;28;946;-79
2023/03/26 22:13:34;;;;;;;;;;;;;;;;;;10368384;28;1024;-79
2023/03/26 22:18:31;;;;;;;;;;;;;;;;;;10368582;28;928;-79
2023/03/26 22:23:32;;;;;;;;;;;;;;;;;;10368319;28;1946;-79
2023/03/26 22:28:28;;;;;;;;;;;;;;;;;;10368399;28;909;-78
2023/03/26 22:33:24;;;;;;;;;;;;;;;;;;10366933;28;917;-79
2023/03/26 22:38:20;;;;;;;;;;;;;;;;;;10366732;28;855;-78
2023/03/26 22:43:16;;;;;;;;;;;;;;;;;;10368075;28;1977;-79
2023/03/26 22:48:12;;;;;;;;;;;;;;;;;;10366950;28;906;-79
2023/03/26 22:53:08;;;;;;;;;;;;;;;;;;10367467;28;888;-79
2023/03/26 22:58:03;;;;;;;;;;;;;;;;;;10367314;28;822;-79
2023/03/26 23:02:59;;;;;;;;;;;;;;;;;;10365584;28;1957;-78
2023/03/26 23:07:56;;;;;;;;;;;;;;;;;;10367611;28;860;-79
2023/03/26 23:12:51;;;;;;;;;;;;;;;;;;10366407;28;778;-79
2023/03/26 23:17:47;;;;;;;;;;;;;;;;;;10366121;28;886;-79
2023/03/26 23:22:43;;;;;;;;;;;;;;;;;;10366080;28;1894;-79
2023/03/26 23:27:39;;;;;;;;;;;;;;;;;;10366722;28;831;-79
2023/03/26 23:32:36;;;;;;;;;;;;;;;;;;10366036;28;846;-79
2023/03/26 23:37:33;;;;;;;;;;;;;;;;;;10365923;28;874;-79
2023/03/26 23:42:29;;;;;;;;;;;;;;;;;;10365335;28;1977;-79
2023/03/26 23:47:25;;;;;;;;;;;;;;;;;;10365164;28;981;-78
2023/03/26 23:52:22;;;;;;;;;;;;;;;;;;10365553;28;999;-78
2023/03/26 23:57:18;;;;;;;;;;;;;;;;;;10365464;28;957;-79
